createdAt,value
2019-03-09T00:00:47.433Z,4.84
2019-03-09T00:03:17.445Z,4.89
2019-03-09T00:05:47.476Z,4.90
2019-03-09T00:08:16.425Z,4.90
2019-03-09T00:10:47.920Z,4.90
2019-03-09T00:13:20.830Z,4.93
2019-03-09T00:15:52.257Z,4.96
2019-03-09T00:18:21.506Z,4.99
2019-03-09T00:20:51.351Z,5.01
2019-03-09T00:23:39.574Z,5.04
2019-03-09T00:26:31.109Z,5.06
2019-03-09T00:29:16.504Z,5.06
2019-03-09T00:31:51.051Z,5.08
2019-03-09T00:34:22.936Z,5.10
2019-03-09T00:36:53.868Z,5.12
2019-03-09T00:39:26.302Z,5.14
2019-03-09T00:41:55.267Z,5.13
2019-03-09T00:44:25.222Z,5.16
2019-03-09T00:46:57.119Z,5.19
2019-03-09T00:49:27.090Z,5.20
2019-03-09T00:51:58.498Z,5.23
2019-03-09T00:54:28.325Z,5.29
2019-03-09T00:57:10.055Z,5.34
2019-03-09T00:59:37.403Z,5.37
2019-03-09T01:02:07.419Z,5.36
2019-03-09T01:04:36.280Z,5.36
2019-03-09T01:07:06.292Z,5.35
2019-03-09T01:09:42.410Z,5.37
2019-03-09T01:12:15.528Z,5.38
2019-03-09T01:14:45.485Z,5.38
2019-03-09T01:17:14.430Z,5.41
2019-03-09T01:19:46.963Z,5.42
2019-03-09T01:22:17.943Z,5.44
2019-03-09T01:24:48.514Z,5.47
2019-03-09T01:27:21.170Z,5.49
2019-03-09T01:29:52.346Z,5.53
2019-03-09T01:32:21.190Z,5.56
2019-03-09T01:34:53.402Z,5.56
2019-03-09T01:37:22.501Z,5.55
2019-03-09T01:39:52.502Z,5.53
2019-03-09T01:42:24.012Z,5.53
2019-03-09T01:44:57.556Z,5.50
2019-03-09T01:47:27.389Z,5.48
2019-03-09T01:50:02.797Z,5.46
2019-03-09T01:52:33.801Z,5.43
2019-03-09T01:55:05.879Z,5.42
2019-03-09T01:57:34.742Z,5.39
2019-03-09T02:00:04.119Z,5.38
2019-03-09T02:02:33.946Z,5.36
2019-03-09T02:05:05.402Z,5.35
2019-03-09T02:07:41.268Z,5.35
2019-03-09T02:10:10.449Z,5.33
2019-03-09T02:12:40.450Z,5.34
2019-03-09T02:15:12.986Z,5.35
2019-03-09T02:17:44.074Z,5.36
2019-03-09T02:20:14.473Z,5.35
2019-03-09T02:22:46.959Z,5.37
2019-03-09T02:25:16.154Z,5.36
2019-03-09T02:27:48.018Z,5.36
2019-03-09T02:30:16.959Z,5.36
2019-03-09T02:32:51.282Z,5.34
2019-03-09T02:35:20.251Z,5.34
2019-03-09T02:37:49.090Z,5.33
2019-03-09T02:40:23.241Z,5.33
2019-03-09T02:42:53.445Z,5.35
2019-03-09T02:45:31.559Z,5.33
2019-03-09T02:48:01.740Z,5.31
2019-03-09T02:50:30.691Z,5.28
2019-03-09T02:53:01.659Z,5.27
2019-03-09T02:55:32.003Z,5.28
2019-03-09T02:58:01.914Z,5.27
2019-03-09T03:00:41.889Z,5.27
2019-03-09T03:03:12.807Z,5.25
2019-03-09T03:05:42.848Z,5.26
2019-03-09T03:08:15.781Z,5.25
2019-03-09T03:10:44.583Z,5.25
2019-03-09T03:13:13.444Z,5.24
2019-03-09T03:15:42.352Z,5.23
2019-03-09T03:18:19.415Z,5.22
2019-03-09T03:20:50.848Z,5.22
2019-03-09T03:23:23.251Z,5.21
2019-03-09T03:25:55.376Z,5.19
2019-03-09T03:28:24.189Z,5.18
2019-03-09T03:30:52.999Z,5.18
2019-03-09T03:33:22.986Z,5.16
2019-03-09T03:35:51.968Z,5.17
2019-03-09T03:38:21.898Z,5.17
2019-03-09T03:40:51.818Z,5.15
2019-03-09T03:43:20.739Z,5.15
2019-03-09T03:45:50.591Z,5.14
2019-03-09T03:48:20.615Z,5.16
2019-03-09T03:50:51.571Z,5.17
2019-03-09T03:53:20.365Z,5.17
2019-03-09T03:55:49.354Z,5.15
2019-03-09T03:58:19.303Z,5.17
2019-03-09T04:00:53.193Z,5.17
2019-03-09T04:03:27.378Z,5.17
2019-03-09T04:05:59.205Z,5.19
2019-03-09T04:08:30.134Z,5.20
2019-03-09T04:11:01.447Z,5.21
2019-03-09T04:13:30.422Z,5.23
2019-03-09T04:15:59.249Z,5.25
2019-03-09T04:18:30.669Z,5.30
2019-03-09T04:21:01.790Z,5.28
2019-03-09T04:23:32.013Z,5.32
2019-03-09T04:26:00.786Z,5.33
2019-03-09T04:28:30.743Z,5.34
2019-03-09T04:30:59.702Z,5.36
2019-03-09T04:33:28.640Z,5.38
2019-03-09T04:35:57.429Z,5.40
2019-03-09T04:38:27.341Z,5.41
2019-03-09T04:41:01.692Z,5.44
2019-03-09T04:43:34.139Z,5.46
2019-03-09T04:46:05.059Z,5.48
2019-03-09T04:48:36.002Z,5.50
2019-03-09T04:51:09.493Z,5.50
2019-03-09T04:53:38.481Z,5.54
2019-03-09T04:56:07.373Z,5.55
2019-03-09T04:58:39.536Z,5.58
2019-03-09T05:01:13.325Z,5.59
2019-03-09T05:03:42.060Z,5.63
2019-03-09T05:06:18.497Z,5.64
2019-03-09T05:09:12.090Z,5.64
2019-03-09T05:11:42.490Z,5.71
2019-03-09T05:14:15.392Z,5.72
2019-03-09T05:16:45.289Z,5.77
2019-03-09T05:19:19.933Z,5.79
2019-03-09T05:21:51.487Z,5.84
2019-03-09T05:24:20.299Z,5.86
2019-03-09T05:26:49.089Z,5.90
2019-03-09T05:29:21.069Z,5.96
2019-03-09T05:31:54.867Z,5.97
2019-03-09T05:34:23.705Z,5.98
2019-03-09T05:36:54.863Z,5.96
2019-03-09T05:39:25.965Z,5.97
2019-03-09T05:41:54.768Z,5.99
2019-03-09T05:44:24.744Z,6.01
2019-03-09T05:46:56.689Z,6.01
2019-03-09T05:49:25.556Z,6.02
2019-03-09T05:52:34.720Z,6.03
2019-03-09T05:55:12.983Z,6.05
2019-03-09T05:57:41.891Z,6.05
2019-03-09T06:00:12.408Z,6.06
2019-03-09T06:02:43.380Z,6.05
2019-03-09T06:05:37.581Z,6.06
2019-03-09T06:08:07.116Z,6.07
2019-03-09T06:10:36.006Z,6.07
2019-03-09T06:13:11.704Z,6.05
2019-03-09T06:15:40.760Z,6.07
2019-03-09T06:18:14.306Z,6.09
2019-03-09T06:20:46.744Z,6.09
2019-03-09T06:23:15.512Z,6.08
2019-03-09T06:25:44.406Z,6.09
2019-03-09T06:28:18.600Z,6.05
2019-03-09T06:30:47.467Z,6.03
2019-03-09T06:33:37.630Z,6.02
2019-03-09T06:36:33.453Z,6.08
2019-03-09T06:39:14.157Z,6.12
2019-03-09T06:41:50.187Z,6.13
2019-03-09T06:44:18.971Z,6.13
2019-03-09T06:46:50.337Z,6.12
2019-03-09T06:49:21.711Z,6.15
2019-03-09T06:51:51.516Z,6.15
2019-03-09T06:54:26.653Z,6.14
2019-03-09T06:56:57.067Z,6.13
2019-03-09T06:59:28.529Z,6.13
2019-03-09T07:01:57.485Z,6.15
2019-03-09T07:04:27.475Z,6.17
2019-03-09T07:06:59.600Z,6.21
2019-03-09T07:09:28.432Z,6.21
2019-03-09T07:11:57.355Z,6.20
2019-03-09T07:15:20.250Z,6.19
2019-03-09T07:17:51.666Z,6.19
2019-03-09T07:20:21.745Z,6.19
2019-03-09T07:22:50.609Z,6.22
2019-03-09T07:25:20.605Z,6.23
2019-03-09T07:28:08.834Z,6.24
2019-03-09T07:30:42.452Z,6.29
2019-03-09T07:33:11.376Z,6.27
2019-03-09T07:35:47.446Z,6.27
2019-03-09T07:38:21.578Z,6.32
2019-03-09T07:40:53.056Z,6.38
2019-03-09T07:43:28.410Z,6.42
2019-03-09T07:45:57.192Z,6.44
2019-03-09T07:48:28.189Z,6.48
2019-03-09T07:51:01.576Z,6.48
2019-03-09T07:53:30.437Z,6.50
2019-03-09T07:55:59.228Z,6.51
2019-03-09T07:58:29.087Z,6.56
2019-03-09T08:00:57.888Z,6.57
2019-03-09T08:03:27.734Z,6.64
2019-03-09T08:05:57.335Z,6.69
2019-03-09T08:08:26.257Z,6.82
2019-03-09T08:10:55.062Z,6.99
2019-03-09T08:13:23.916Z,7.08
2019-03-09T08:15:53.870Z,7.06
2019-03-09T08:18:32.846Z,6.99
2019-03-09T08:21:05.301Z,6.94
2019-03-09T08:23:36.141Z,6.90
2019-03-09T08:26:05.103Z,6.73
2019-03-09T08:28:33.914Z,6.88
2019-03-09T08:31:08.882Z,6.96
2019-03-09T08:33:39.046Z,7.00
2019-03-09T08:36:08.194Z,7.16
2019-03-09T08:38:46.585Z,7.51
2019-03-09T08:41:16.162Z,7.49
2019-03-09T08:43:47.102Z,7.30
2019-03-09T08:46:17.013Z,7.09
2019-03-09T08:48:49.313Z,6.90
2019-03-09T08:51:18.203Z,6.68
2019-03-09T08:53:50.966Z,6.56
2019-03-09T08:56:25.219Z,6.49
2019-03-09T08:58:54.174Z,6.67
2019-03-09T09:01:30.413Z,7.31
2019-03-09T09:04:00.338Z,7.63
2019-03-09T09:06:29.180Z,7.72
2019-03-09T09:09:01.662Z,7.67
2019-03-09T09:11:30.481Z,7.71
2019-03-09T09:14:00.427Z,8.23
2019-03-09T09:16:29.314Z,8.83
2019-03-09T09:18:58.139Z,9.32
2019-03-09T09:21:28.377Z,9.01
2019-03-09T09:23:58.225Z,8.76
2019-03-09T09:26:30.935Z,8.51
2019-03-09T09:29:02.417Z,8.32
2019-03-09T09:31:31.318Z,8.18
2019-03-09T09:34:04.571Z,7.98
2019-03-09T09:36:36.131Z,7.84
2019-03-09T09:39:10.913Z,7.69
2019-03-09T09:41:42.059Z,7.65
2019-03-09T09:44:11.922Z,7.58
2019-03-09T09:46:41.994Z,7.55
2019-03-09T09:49:10.951Z,7.70
2019-03-09T10:11:42.228Z,8.96
2019-03-09T10:14:10.904Z,9.20
2019-03-09T10:16:39.694Z,9.33
2019-03-09T10:19:08.407Z,9.37
2019-03-09T10:29:34.281Z,8.85
2019-03-09T10:37:14.584Z,8.71
2019-03-09T10:39:43.670Z,8.99
2019-03-09T10:42:12.684Z,9.03
2019-03-09T10:44:41.883Z,8.90
2019-03-09T10:47:10.868Z,8.72
2019-03-09T10:49:39.857Z,8.63
2019-03-09T10:52:08.972Z,8.57
2019-03-09T10:54:54.761Z,8.51
2019-03-09T10:57:23.740Z,8.55
2019-03-09T10:59:52.590Z,8.84
2019-03-09T11:02:21.529Z,9.07
2019-03-09T11:04:50.393Z,9.00
2019-03-09T11:07:21.381Z,8.85
2019-03-09T11:09:50.409Z,8.72
2019-03-09T11:12:21.454Z,8.62
2019-03-09T11:14:50.646Z,8.52
2019-03-09T11:17:19.637Z,8.52
2019-03-09T11:19:48.706Z,8.53
2019-03-09T11:22:18.039Z,8.51
2019-03-09T11:24:46.904Z,8.56
2019-03-09T11:27:15.845Z,8.57
2019-03-09T11:29:44.830Z,8.59
2019-03-09T11:32:13.974Z,8.68
2019-03-09T11:34:43.173Z,8.72
2019-03-09T11:37:12.378Z,8.66
2019-03-09T11:39:41.467Z,8.60
2019-03-09T11:42:10.733Z,8.72
2019-03-09T11:44:39.755Z,8.92
2019-03-09T11:47:08.743Z,9.09
2019-03-09T11:49:37.736Z,9.33
2019-03-09T11:52:06.518Z,9.52
2019-03-09T11:54:35.463Z,9.71
2019-03-09T12:00:37.595Z,9.72
2019-03-09T12:03:06.798Z,9.62
2019-03-09T12:05:36.546Z,9.60
2019-03-09T12:08:05.628Z,9.60
2019-03-09T12:10:34.690Z,9.59
2019-03-09T12:13:03.491Z,9.57
2019-03-09T12:15:32.540Z,9.50
2019-03-09T12:18:01.638Z,9.44
2019-03-09T12:20:30.820Z,9.43
2019-03-09T12:23:16.736Z,9.40
2019-03-09T12:25:45.543Z,9.31
2019-03-09T12:28:14.640Z,9.14
2019-03-09T12:30:43.774Z,9.07
2019-03-09T12:33:12.588Z,9.05
2019-03-09T12:35:43.937Z,9.13
2019-03-09T12:38:12.404Z,9.19
2019-03-09T12:40:41.450Z,9.23
2019-03-09T12:43:10.481Z,9.27
2019-03-09T12:45:39.490Z,9.28
2019-03-09T12:48:09.015Z,9.25
2019-03-09T12:50:38.025Z,9.11
2019-03-09T12:53:07.175Z,9.01
2019-03-09T12:55:36.346Z,8.96
2019-03-09T12:58:05.765Z,8.90
2019-03-09T13:00:34.824Z,8.82
2019-03-09T13:03:04.646Z,8.77
2019-03-09T13:05:33.668Z,8.75
2019-03-09T13:08:02.870Z,8.73
2019-03-09T13:10:32.221Z,8.74
2019-03-09T13:13:01.653Z,8.77
2019-03-09T13:15:30.894Z,8.81
2019-03-09T13:18:00.070Z,8.85
2019-03-09T13:20:29.231Z,8.87
2019-03-09T13:22:58.562Z,8.89
2019-03-09T13:25:27.773Z,8.91
2019-03-09T13:27:56.903Z,8.96
2019-03-09T13:30:29.548Z,8.97
2019-03-09T13:32:58.960Z,8.99
2019-03-09T13:35:28.090Z,9.02
2019-03-09T13:37:57.311Z,9.02
2019-03-09T13:40:26.414Z,8.99
2019-03-09T13:42:55.536Z,9.02
2019-03-09T13:45:24.796Z,9.02
2019-03-09T13:47:54.073Z,8.99
2019-03-09T13:50:23.303Z,8.96
2019-03-09T13:52:52.293Z,8.95
2019-03-09T13:55:21.591Z,8.97
2019-03-09T13:57:50.838Z,9.02
2019-03-09T14:00:20.159Z,9.08
2019-03-09T14:02:50.030Z,9.17
2019-03-09T14:08:50.860Z,9.21
2019-03-09T14:11:20.167Z,9.07
2019-03-09T14:13:50.413Z,8.95
2019-03-09T14:16:20.886Z,8.85
2019-03-09T14:18:51.024Z,8.82
2019-03-09T14:21:19.926Z,8.79
2019-03-09T14:23:49.411Z,8.72
2019-03-09T14:29:50.930Z,8.73
2019-03-09T14:32:20.765Z,8.75
2019-03-09T14:34:49.724Z,8.83
2019-03-09T14:37:18.709Z,8.90
2019-03-09T14:39:47.829Z,8.95
2019-03-09T14:42:17.251Z,8.96
2019-03-09T14:44:46.405Z,8.98
2019-03-09T14:47:15.481Z,8.97
2019-03-09T14:49:47.454Z,8.90
2019-03-09T14:52:16.716Z,8.83
2019-03-09T14:54:45.732Z,8.77
2019-03-09T14:57:14.686Z,8.77
2019-03-09T14:59:43.676Z,8.78
2019-03-09T15:02:12.916Z,8.85
2019-03-09T15:04:42.001Z,8.91
2019-03-09T15:07:10.818Z,8.93
2019-03-09T15:09:39.883Z,8.93
2019-03-09T15:12:08.868Z,8.94
2019-03-09T15:14:37.571Z,8.98
2019-03-09T15:17:06.630Z,9.00
2019-03-09T15:19:35.618Z,8.98
2019-03-09T15:22:04.660Z,8.95
2019-03-09T15:24:33.633Z,8.92
2019-03-09T15:27:02.388Z,8.84
2019-03-09T15:29:32.742Z,8.78
2019-03-09T15:32:01.887Z,8.74
2019-03-09T15:34:30.839Z,8.69
2019-03-09T15:36:59.817Z,8.62
2019-03-09T15:39:28.913Z,8.57
2019-03-09T15:41:57.889Z,8.51
2019-03-09T15:44:26.971Z,8.47
2019-03-09T15:46:56.049Z,8.43
2019-03-09T15:49:25.086Z,8.41
2019-03-09T15:51:56.876Z,8.38
2019-03-09T15:54:25.853Z,8.37
2019-03-09T15:56:54.665Z,8.35
2019-03-09T15:59:23.556Z,8.33
2019-03-09T16:01:53.419Z,8.31
2019-03-09T16:04:22.435Z,8.27
2019-03-09T16:06:51.205Z,8.24
2019-03-09T16:09:20.129Z,8.22
2019-03-09T16:11:49.271Z,8.21
2019-03-09T16:14:18.207Z,8.19
2019-03-09T16:16:47.140Z,8.00
2019-03-09T16:19:16.172Z,7.76
2019-03-09T16:21:45.161Z,7.53
2019-03-09T16:24:14.160Z,7.34
2019-03-09T16:26:43.315Z,7.12
2019-03-09T16:29:12.288Z,7.02
2019-03-09T16:31:41.018Z,6.92
2019-03-09T16:34:10.057Z,6.83
2019-03-09T16:36:39.018Z,6.76
2019-03-09T16:39:09.138Z,6.71
2019-03-09T16:41:38.195Z,6.64
2019-03-09T16:44:08.015Z,6.59
2019-03-09T16:46:36.801Z,6.54
2019-03-09T16:49:05.804Z,6.52
2019-03-09T16:51:34.844Z,6.46
2019-03-09T16:54:03.748Z,6.42
2019-03-09T16:56:32.806Z,6.40
2019-03-09T16:59:01.745Z,6.36
2019-03-09T17:01:30.683Z,6.36
2019-03-09T17:03:59.739Z,6.34
2019-03-09T17:06:28.726Z,6.33
2019-03-09T17:08:58.039Z,6.31
2019-03-09T17:11:27.126Z,6.28
2019-03-09T17:13:56.119Z,6.29
2019-03-09T17:16:25.571Z,6.28
2019-03-09T17:18:54.486Z,6.26
2019-03-09T17:21:23.502Z,6.19
2019-03-09T17:23:55.282Z,6.13
2019-03-09T17:26:23.996Z,6.06
2019-03-09T17:28:52.968Z,6.03
2019-03-09T17:31:22.032Z,6.01
2019-03-09T17:33:51.014Z,5.96
2019-03-09T17:36:19.720Z,5.92
2019-03-09T17:38:48.750Z,5.88
2019-03-09T17:41:17.719Z,5.76
2019-03-09T17:43:46.654Z,5.64
2019-03-09T17:46:15.583Z,5.56
2019-03-09T17:48:44.703Z,5.48
2019-03-09T17:51:13.651Z,5.33
2019-03-09T17:53:43.896Z,5.25
2019-03-09T17:56:12.928Z,5.15
2019-03-09T17:58:42.140Z,5.06
2019-03-09T18:01:11.082Z,5.00
2019-03-09T18:03:40.093Z,4.89
2019-03-09T18:06:09.037Z,4.80
2019-03-09T18:08:37.754Z,4.72
2019-03-09T18:11:07.726Z,4.62
2019-03-09T18:13:36.776Z,4.54
2019-03-09T18:16:05.609Z,4.47
2019-03-09T18:18:34.668Z,4.39
2019-03-09T18:21:03.854Z,4.35
2019-03-09T18:23:32.823Z,4.28
2019-03-09T18:26:01.823Z,4.26
2019-03-09T18:28:30.769Z,4.24
2019-03-09T18:30:59.716Z,4.17
2019-03-09T18:33:29.004Z,4.13
2019-03-09T18:35:57.985Z,4.09
2019-03-09T18:38:26.722Z,4.06
2019-03-09T18:40:55.733Z,4.07
2019-03-09T18:43:24.756Z,4.06
2019-03-09T18:45:53.470Z,4.07
2019-03-09T18:48:22.449Z,4.11
2019-03-09T18:50:51.167Z,4.12
2019-03-09T18:53:20.149Z,4.13
2019-03-09T18:55:58.663Z,4.14
2019-03-09T18:58:20.126Z,4.18
2019-03-09T19:00:49.145Z,4.20
2019-03-09T19:03:18.084Z,4.24
2019-03-09T19:05:47.081Z,4.30
2019-03-09T19:08:16.023Z,4.33
2019-03-09T19:10:44.993Z,4.34
2019-03-09T19:13:13.704Z,4.35
2019-03-09T19:15:42.661Z,4.39
2019-03-09T19:18:11.526Z,4.40
2019-03-09T19:20:42.808Z,4.41
2019-03-09T19:23:11.770Z,4.38
2019-03-09T19:25:40.691Z,4.36
2019-03-09T19:28:09.632Z,4.31
2019-03-09T19:30:38.377Z,4.29
2019-03-09T19:33:07.389Z,4.26
2019-03-09T19:35:36.373Z,4.26
2019-03-09T19:38:08.681Z,4.24
2019-03-09T19:40:37.658Z,4.24
2019-03-09T19:43:06.656Z,4.23
2019-03-09T19:45:35.381Z,4.23
2019-03-09T19:48:04.656Z,4.24
2019-03-09T19:50:33.414Z,4.26
2019-03-09T19:53:02.342Z,4.26
2019-03-09T19:55:31.320Z,4.30
2019-03-09T19:58:00.296Z,4.36
2019-03-09T20:00:29.165Z,4.41
2019-03-09T20:02:58.148Z,4.49
2019-03-09T20:05:26.874Z,4.58
2019-03-09T20:07:55.884Z,4.62
2019-03-09T20:10:25.125Z,4.67
2019-03-09T20:12:54.185Z,4.70
2019-03-09T20:15:23.307Z,4.75
2019-03-09T20:17:52.339Z,4.76
2019-03-09T20:20:21.388Z,4.78
2019-03-09T20:22:50.412Z,4.80
2019-03-09T20:25:19.241Z,4.76
2019-03-09T20:27:48.768Z,4.72
2019-03-09T20:30:18.078Z,4.69
2019-03-09T20:32:47.228Z,4.67
2019-03-09T20:35:16.376Z,4.63
2019-03-09T20:37:45.389Z,4.62
2019-03-09T20:40:15.047Z,4.60
2019-03-09T20:42:44.167Z,4.56
2019-03-09T20:45:14.912Z,4.55
2019-03-09T20:47:44.617Z,4.53
2019-03-09T20:50:15.372Z,4.55
2019-03-09T20:52:44.440Z,4.57
2019-03-09T20:55:14.021Z,4.61
2019-03-09T20:57:43.086Z,4.63
2019-03-09T21:00:19.545Z,4.66
2019-03-09T21:02:48.477Z,4.67
2019-03-09T21:05:17.396Z,4.68
2019-03-09T21:07:47.062Z,4.71
2019-03-09T21:10:17.690Z,4.73
2019-03-09T21:13:01.059Z,4.73
2019-03-09T21:15:31.922Z,4.76
2019-03-09T21:18:01.115Z,4.81
2019-03-09T21:20:30.463Z,4.87
2019-03-09T21:22:59.445Z,4.91
2019-03-09T21:25:28.770Z,4.97
2019-03-09T21:27:58.264Z,5.01
2019-03-09T21:30:30.093Z,4.82
2019-03-09T21:33:00.624Z,4.47
2019-03-09T21:35:30.497Z,4.25
2019-03-09T21:37:59.620Z,4.16
2019-03-09T21:40:28.834Z,4.11
2019-03-09T21:42:58.074Z,4.08
2019-03-09T21:45:27.443Z,4.01
2019-03-09T21:47:56.677Z,3.93
2019-03-09T21:50:26.006Z,3.87
2019-03-09T21:52:54.783Z,3.82
2019-03-09T21:55:23.873Z,3.79
2019-03-09T21:57:53.303Z,3.59
2019-03-09T22:00:22.664Z,3.79
2019-03-09T22:02:52.091Z,3.81
2019-03-09T22:05:21.095Z,3.87
2019-03-09T22:07:50.334Z,3.96
2019-03-09T22:10:20.385Z,4.06
2019-03-09T22:12:49.879Z,4.14
2019-03-09T22:15:18.906Z,4.20
2019-03-09T22:17:48.549Z,4.25
2019-03-09T22:20:20.539Z,4.30
2019-03-09T22:22:49.923Z,4.35
2019-03-09T22:25:20.823Z,4.38
2019-03-09T22:27:49.849Z,4.40
2019-03-09T22:30:18.763Z,4.40
2019-03-09T22:32:47.577Z,4.44
2019-03-09T22:35:16.589Z,4.46
2019-03-09T22:37:45.558Z,4.46
2019-03-09T22:40:15.878Z,4.46
2019-03-09T22:42:44.958Z,4.42
2019-03-09T22:45:13.989Z,4.39
2019-03-09T22:47:42.967Z,4.38
2019-03-09T22:50:13.075Z,4.38
2019-03-09T22:52:42.093Z,4.38
2019-03-09T22:55:11.146Z,4.35
2019-03-09T22:57:39.943Z,4.34
2019-03-09T23:00:11.588Z,4.32
2019-03-09T23:02:40.683Z,4.32
2019-03-09T23:05:10.109Z,4.33
2019-03-09T23:07:39.217Z,4.36
2019-03-09T23:10:10.409Z,4.37
2019-03-09T23:12:39.240Z,4.35
2019-03-09T23:15:09.643Z,4.34
2019-03-09T23:17:38.682Z,4.33
2019-03-09T23:20:10.065Z,4.37
2019-03-09T23:22:39.010Z,4.43
2019-03-09T23:25:07.968Z,4.48
2019-03-09T23:27:37.048Z,4.52
2019-03-09T23:30:08.523Z,4.56
2019-03-09T23:32:37.487Z,4.57
2019-03-09T23:35:06.632Z,4.55
2019-03-09T23:37:35.770Z,4.55
2019-03-09T23:40:04.938Z,4.59
2019-03-09T23:42:34.133Z,4.58
2019-03-09T23:45:03.254Z,4.55
2019-03-09T23:47:32.256Z,4.52
2019-03-09T23:50:01.208Z,4.51
2019-03-09T23:52:30.071Z,4.51
2019-03-09T23:54:59.160Z,4.48
2019-03-09T23:57:28.020Z,4.44
2019-03-09T23:59:57.022Z,4.44
